Reno - Stead, NV

11:51 AM PDT on October 14, 2019 (GMT -0700)
Reno - Stead

Weather History for KRTS - September, 2019

Change the Weather History Date:

Saturday, September 21, 2019

  Actual Average (KRNO) Record (KRNO)
Temperature  
Mean Temperature 50 °F -  
Max Temperature 66 °F 78 °F 93 °F (2015)
Min Temperature 35 °F 38 °F 24 °F (1895)
Degree Days  
Heating Degree Days 14    
Moisture  
Dew Point 34 °F    
Average Humidity 55    
Maximum Humidity 87    
Minimum Humidity 26    
Precipitation  
Precipitation 0.00 in - - ()
Sea Level Pressure  
Sea Level Pressure 30.17 in    
Wind  
Wind Speed 4 mph (NE)    
Max Wind Speed 13 mph    
Max Gust Speed 18 mph    
Visibility 10 miles    
Events      
Averages and records for this station are not official NWS values.
T = Trace of Precipitation, MM = Missing Value Source: NWS Daily Summary

Daily Weather History Graph

Daily Weather History Graph

Search for Another Location

Airport or City:

Astronomy

Sep. 21, 2019 Rise Set
Actual Time 6:46 AM PDT 6:58 PM PDT
Civil Twilight 6:19 AM PDT 7:25 PM PDT
Nautical Twilight 5:47 AM PDT 7:56 PM PDT
Astronomical Twilight 5:15 AM PDT 8:28 PM PDT
Moon 11:41 PM PDT (9/21) 1:56 PM PDT (9/21)
Length of Visible Light 13h 06m
Length of Day
12h 12m
Waning Gibbous, 53% of the Moon is Illuminated
Sep 21
Waning Gibbous
Sep 21
Last Quarter
Sep 28
New
Oct 5
First Quarter
Oct 13
Full

Hourly Weather History & Observations

Time (PDT) Temp. Windchill Dew Point Humidity Pressure Visibility Wind Dir Wind Speed Gust Speed Precip Events Conditions
12:15 AM 44.6 °F 41.4 °F 33.8 °F 66% 30.16 in 10.0 mi NNW 5.8 mph - N/A   Partly Cloudy
12:35 AM 42.8 °F - 33.8 °F 70% 30.17 in 10.0 mi Calm Calm - N/A   Clear
12:55 AM 44.6 °F 42.2 °F 33.8 °F 66% 30.17 in 10.0 mi North 4.6 mph - N/A   Clear
1:15 AM 42.8 °F 39.3 °F 33.8 °F 70% 30.17 in 10.0 mi NW 5.8 mph - N/A   Clear
2:15 AM 39.2 °F 35.0 °F 33.8 °F 81% 30.17 in 10.0 mi WNW 5.8 mph - N/A   Clear
2:35 AM 41.0 °F 39.0 °F 33.8 °F 76% 30.17 in 10.0 mi NW 3.5 mph - N/A   Clear
2:55 AM 39.2 °F 35.0 °F 33.8 °F 81% 30.18 in 10.0 mi North 5.8 mph - N/A   Clear
3:15 AM 37.4 °F 34.9 °F 33.8 °F 87% 30.18 in 10.0 mi NNE 3.5 mph - N/A   Clear
3:35 AM 41.0 °F - 33.8 °F 76% 30.18 in 10.0 mi Calm Calm - N/A   Clear
3:55 AM 39.2 °F - 33.8 °F 81% 30.18 in 10.0 mi Calm Calm - N/A   Clear
4:15 AM 37.4 °F 34.9 °F 32.0 °F 81% 30.18 in 10.0 mi NW 3.5 mph - N/A   Clear
4:35 AM 39.2 °F - 33.8 °F 81% 30.18 in 10.0 mi Calm Calm - N/A   Clear
4:55 AM 37.4 °F - 32.0 °F 81% 30.18 in 10.0 mi Calm Calm - N/A   Clear
5:15 AM 35.6 °F - 32.0 °F 87% 30.19 in 10.0 mi Calm Calm - N/A   Clear
5:35 AM 35.6 °F 29.9 °F 30.2 °F 81% 30.19 in 10.0 mi NNW 6.9 mph - N/A   Clear
5:55 AM 37.4 °F - 33.8 °F 87% 30.19 in 10.0 mi Calm Calm - N/A   Clear
6:15 AM 39.2 °F - 35.6 °F 87% 30.20 in 10.0 mi Calm Calm - N/A   Clear
6:35 AM 37.4 °F - 33.8 °F 87% 30.20 in 10.0 mi Calm Calm - N/A   Clear
6:55 AM 37.4 °F - 33.8 °F 87% 30.21 in 10.0 mi Calm Calm - N/A   Clear
7:15 AM 37.4 °F - 33.8 °F 87% 30.21 in 10.0 mi Calm Calm - N/A   Clear
7:35 AM 41.0 °F - 35.6 °F 81% 30.22 in 10.0 mi Calm Calm - N/A   Clear
7:55 AM 42.8 °F - 37.4 °F 81% 30.22 in 10.0 mi Calm Calm - N/A   Clear
8:15 AM 44.6 °F - 37.4 °F 76% 30.22 in 10.0 mi Calm Calm - N/A   Clear
8:35 AM 46.4 °F - 37.4 °F 71% 30.22 in 10.0 mi Calm Calm - N/A   Clear
8:55 AM 48.2 °F - 37.4 °F 66% 30.23 in 10.0 mi Calm Calm - N/A   Clear
9:15 AM 50.0 °F - 37.4 °F 62% 30.23 in 10.0 mi ESE 5.8 mph - N/A   Clear
9:35 AM 51.8 °F - 37.4 °F 58% 30.22 in 10.0 mi Calm Calm - N/A   Clear
9:55 AM 53.6 °F - 37.4 °F 54% 30.23 in 10.0 mi ESE 4.6 mph - N/A   Clear
10:15 AM 55.4 °F - 37.4 °F 51% 30.22 in 10.0 mi Variable 6.9 mph - N/A   Clear
10:35 AM 55.4 °F - 37.4 °F 51% 30.22 in 10.0 mi ESE 9.2 mph - N/A   Clear
10:55 AM 57.2 °F - 35.6 °F 44% 30.21 in 10.0 mi ESE 8.1 mph - N/A   Clear
11:15 AM 57.2 °F - 35.6 °F 44% 30.21 in 10.0 mi ESE 9.2 mph - N/A   Clear
11:35 AM 59.0 °F - 35.6 °F 42% 30.20 in 10.0 mi SE 11.5 mph - N/A   Clear
11:55 AM 60.8 °F - 35.6 °F 39% 30.19 in 10.0 mi ESE 9.2 mph - N/A   Clear
12:15 PM 60.8 °F - 33.8 °F 36% 30.18 in 10.0 mi SE 12.7 mph - N/A   Clear
12:35 PM 60.8 °F - 33.8 °F 36% 30.18 in 10.0 mi SE 11.5 mph - N/A   Clear
12:55 PM 62.6 °F - 33.8 °F 34% 30.17 in 10.0 mi SE 9.2 mph 17.3 mph N/A   Clear
1:15 PM 62.6 °F - 33.8 °F 34% 30.17 in 10.0 mi Variable 5.8 mph 15.0 mph N/A   Clear
1:35 PM 64.4 °F - 33.8 °F 32% 30.16 in 10.0 mi East 11.5 mph - N/A   Clear
1:55 PM 64.4 °F - 33.8 °F 32% 30.15 in 10.0 mi ESE 11.5 mph - N/A   Clear
2:15 PM 66.2 °F - 33.8 °F 30% 30.15 in 10.0 mi SE 9.2 mph 18.4 mph N/A   Clear
2:35 PM 66.2 °F - 32.0 °F 28% 30.14 in 10.0 mi ENE 10.4 mph 16.1 mph N/A   Clear
2:55 PM 66.2 °F - 32.0 °F 28% 30.14 in 10.0 mi East 6.9 mph - N/A   Clear
3:15 PM 66.2 °F - 32.0 °F 28% 30.14 in 10.0 mi Variable 6.9 mph - N/A   Clear
3:35 PM 66.2 °F - 32.0 °F 28% 30.13 in 10.0 mi Variable 5.8 mph 12.7 mph N/A   Clear
3:55 PM 66.2 °F - 32.0 °F 28% 30.13 in 10.0 mi SE 5.8 mph - N/A   Clear
4:15 PM 66.2 °F - 32.0 °F 28% 30.12 in 10.0 mi ENE 8.1 mph - N/A   Clear
4:35 PM 66.2 °F - 32.0 °F 28% 30.12 in 10.0 mi Variable 4.6 mph 12.7 mph N/A   Clear
4:55 PM 66.2 °F - 30.2 °F 26% 30.12 in 10.0 mi Variable 3.5 mph - N/A   Clear
5:15 PM 66.2 °F - 30.2 °F 26% 30.11 in 10.0 mi SE 5.8 mph - N/A   Clear
5:35 PM 66.2 °F - 30.2 °F 26% 30.11 in 10.0 mi ESE 3.5 mph - N/A   Clear
5:55 PM 66.2 °F - 32.0 °F 28% 30.12 in 10.0 mi Calm Calm - N/A   Clear
6:15 PM 66.2 °F - 30.2 °F 26% 30.12 in 10.0 mi Calm Calm - N/A   Clear
6:35 PM 66.2 °F - 32.0 °F 28% 30.11 in 10.0 mi NE 4.6 mph - N/A   Clear
6:55 PM 62.6 °F - 33.8 °F 34% 30.12 in 10.0 mi NE 8.1 mph - N/A   Clear
7:15 PM 60.8 °F - 33.8 °F 36% 30.12 in 10.0 mi ENE 6.9 mph - N/A   Clear
7:35 PM 59.0 °F - 33.8 °F 39% 30.12 in 10.0 mi NNE 4.6 mph - N/A   Clear
7:55 PM 59.0 °F - 33.8 °F 39% 30.13 in 10.0 mi NNE 3.5 mph - N/A   Clear
8:15 PM 55.4 °F - 33.8 °F 44% 30.14 in 10.0 mi West 5.8 mph - N/A   Clear
8:35 PM 53.6 °F - 35.6 °F 51% 30.14 in 10.0 mi West 4.6 mph - N/A   Clear
8:55 PM 53.6 °F - 35.6 °F 51% 30.15 in 10.0 mi Calm Calm - N/A   Clear
9:15 PM 53.6 °F - 35.6 °F 51% 30.15 in 10.0 mi Calm Calm - N/A   Clear
9:35 PM 51.8 °F - 35.6 °F 54% 30.15 in 10.0 mi WNW 3.5 mph - N/A   Clear
9:55 PM 48.2 °F - 32.0 °F 54% 30.16 in 10.0 mi Calm Calm - N/A   Clear
10:15 PM 50.0 °F - 33.8 °F 54% 30.16 in 10.0 mi NNW 3.5 mph - N/A   Clear
10:35 PM 50.0 °F - 33.8 °F 54% 30.16 in 10.0 mi North 3.5 mph - N/A   Clear
10:55 PM 46.4 °F 43.5 °F 33.8 °F 62% 30.16 in 10.0 mi North 5.8 mph - N/A   Clear
11:15 PM 44.6 °F 40.7 °F 33.8 °F 66% 30.16 in 10.0 mi North 6.9 mph - N/A   Clear
11:35 PM 44.6 °F - 33.8 °F 66% 30.16 in 10.0 mi Calm Calm - N/A   Clear
11:55 PM 42.8 °F 39.3 °F 33.8 °F 70% 30.15 in 10.0 mi NNW 5.8 mph - N/A   Clear